sensor_id;sensor_type;location;lat;lon;timestamp;P1;durP1;ratioP1;P2;durP2;ratioP2
27428;SDS011;14881;48.092;11.574;2023-04-28T00:00:28;7.78;;;4.75;;
27428;SDS011;14881;48.092;11.574;2023-04-28T00:02:55;6.35;;;5.57;;
27428;SDS011;14881;48.092;11.574;2023-04-28T00:05:23;6.72;;;4.70;;
27428;SDS011;14881;48.092;11.574;2023-04-28T00:07:53;8.40;;;5.30;;
27428;SDS011;14881;48.092;11.574;2023-04-28T00:10:21;6.40;;;5.22;;
27428;SDS011;14881;48.092;11.574;2023-04-28T00:12:48;7.60;;;5.45;;
27428;SDS011;14881;48.092;11.574;2023-04-28T00:15:16;5.63;;;5.03;;
27428;SDS011;14881;48.092;11.574;2023-04-28T00:17:44;8.27;;;5.68;;
27428;SDS011;14881;48.092;11.574;2023-04-28T00:20:12;8.82;;;5.75;;
27428;SDS011;14881;48.092;11.574;2023-04-28T00:22:39;7.68;;;5.75;;
27428;SDS011;14881;48.092;11.574;2023-04-28T00:25:09;11.38;;;5.30;;
27428;SDS011;14881;48.092;11.574;2023-04-28T00:27:36;8.23;;;5.63;;
27428;SDS011;14881;48.092;11.574;2023-04-28T00:30:05;6.60;;;5.47;;
27428;SDS011;14881;48.092;11.574;2023-04-28T00:32:33;7.22;;;5.22;;
27428;SDS011;14881;48.092;11.574;2023-04-28T00:35:02;8.27;;;5.20;;
27428;SDS011;14881;48.092;11.574;2023-04-28T00:37:30;6.90;;;5.32;;
27428;SDS011;14881;48.092;11.574;2023-04-28T00:39:57;6.82;;;4.95;;
27428;SDS011;14881;48.092;11.574;2023-04-28T00:42:27;10.38;;;5.28;;
27428;SDS011;14881;48.092;11.574;2023-04-28T00:44:54;6.10;;;5.05;;
27428;SDS011;14881;48.092;11.574;2023-04-28T00:47:22;6.90;;;5.43;;
27428;SDS011;14881;48.092;11.574;2023-04-28T00:49:50;6.28;;;4.85;;
27428;SDS011;14881;48.092;11.574;2023-04-28T00:52:18;6.85;;;5.45;;
27428;SDS011;14881;48.092;11.574;2023-04-28T00:54:45;7.13;;;5.28;;
27428;SDS011;14881;48.092;11.574;2023-04-28T00:57:13;7.80;;;5.13;;
27428;SDS011;14881;48.092;11.574;2023-04-28T00:59:42;7.65;;;5.22;;
27428;SDS011;14881;48.092;11.574;2023-04-28T01:02:11;6.68;;;4.97;;
27428;SDS011;14881;48.092;11.574;2023-04-28T01:04:42;7.55;;;5.50;;
27428;SDS011;14881;48.092;11.574;2023-04-28T01:07:11;8.55;;;5.10;;
27428;SDS011;14881;48.092;11.574;2023-04-28T01:09:39;7.82;;;5.35;;
27428;SDS011;14881;48.092;11.574;2023-04-28T01:12:06;6.45;;;4.70;;
27428;SDS011;14881;48.092;11.574;2023-04-28T01:14:34;7.60;;;5.35;;
27428;SDS011;14881;48.092;11.574;2023-04-28T01:17:03;5.30;;;4.80;;
27428;SDS011;14881;48.092;11.574;2023-04-28T01:19:31;6.88;;;5.28;;
27428;SDS011;14881;48.092;11.574;2023-04-28T01:21:59;6.65;;;4.97;;
27428;SDS011;14881;48.092;11.574;2023-04-28T01:24:28;5.18;;;4.47;;
27428;SDS011;14881;48.092;11.574;2023-04-28T01:26:56;6.18;;;5.15;;
27428;SDS011;14881;48.092;11.574;2023-04-28T01:29:23;7.50;;;5.20;;
27428;SDS011;14881;48.092;11.574;2023-04-28T01:31:51;6.10;;;5.15;;
27428;SDS011;14881;48.092;11.574;2023-04-28T01:34:19;8.35;;;4.90;;
27428;SDS011;14881;48.092;11.574;2023-04-28T01:36:47;4.82;;;4.32;;
27428;SDS011;14881;48.092;11.574;2023-04-28T01:39:14;5.93;;;4.78;;
27428;SDS011;14881;48.092;11.574;2023-04-28T01:41:43;4.63;;;4.22;;
27428;SDS011;14881;48.092;11.574;2023-04-28T01:44:11;6.60;;;4.50;;
27428;SDS011;14881;48.092;11.574;2023-04-28T01:46:40;7.97;;;4.60;;
27428;SDS011;14881;48.092;11.574;2023-04-28T01:49:07;5.72;;;4.80;;
27428;SDS011;14881;48.092;11.574;2023-04-28T01:51:35;7.22;;;5.32;;
27428;SDS011;14881;48.092;11.574;2023-04-28T01:54:03;7.47;;;4.90;;
27428;SDS011;14881;48.092;11.574;2023-04-28T01:56:30;6.07;;;4.95;;
27428;SDS011;14881;48.092;11.574;2023-04-28T01:58:59;10.30;;;4.85;;
27428;SDS011;14881;48.092;11.574;2023-04-28T02:01:27;4.85;;;4.05;;
27428;SDS011;14881;48.092;11.574;2023-04-28T02:03:55;4.47;;;4.07;;
27428;SDS011;14881;48.092;11.574;2023-04-28T02:06:23;4.82;;;4.32;;
27428;SDS011;14881;48.092;11.574;2023-04-28T02:08:50;5.13;;;4.40;;
27428;SDS011;14881;48.092;11.574;2023-04-28T02:11:18;9.32;;;4.50;;
27428;SDS011;14881;48.092;11.574;2023-04-28T02:13:46;5.68;;;4.63;;
27428;SDS011;14881;48.092;11.574;2023-04-28T02:16:15;4.43;;;4.03;;
27428;SDS011;14881;48.092;11.574;2023-04-28T02:18:43;6.70;;;4.43;;
27428;SDS011;14881;48.092;11.574;2023-04-28T02:21:11;5.43;;;4.22;;
27428;SDS011;14881;48.092;11.574;2023-04-28T02:23:39;5.90;;;4.35;;
27428;SDS011;14881;48.092;11.574;2023-04-28T02:26:07;5.82;;;4.18;;
27428;SDS011;14881;48.092;11.574;2023-04-28T02:28:34;4.88;;;4.38;;
27428;SDS011;14881;48.092;11.574;2023-04-28T02:31:03;9.38;;;4.95;;
27428;SDS011;14881;48.092;11.574;2023-04-28T02:33:32;5.63;;;4.40;;
27428;SDS011;14881;48.092;11.574;2023-04-28T02:36:00;9.90;;;3.92;;
27428;SDS011;14881;48.092;11.574;2023-04-28T02:38:29;6.60;;;4.45;;
27428;SDS011;14881;48.092;11.574;2023-04-28T02:40:57;6.35;;;4.28;;
27428;SDS011;14881;48.092;11.574;2023-04-28T02:43:26;5.30;;;4.78;;
27428;SDS011;14881;48.092;11.574;2023-04-28T02:45:54;5.25;;;4.05;;
27428;SDS011;14881;48.092;11.574;2023-04-28T02:48:22;9.27;;;4.50;;
27428;SDS011;14881;48.092;11.574;2023-04-28T02:50:52;8.23;;;3.80;;
27428;SDS011;14881;48.092;11.574;2023-04-28T02:53:20;9.25;;;4.00;;
27428;SDS011;14881;48.092;11.574;2023-04-28T02:55:48;6.85;;;4.45;;
27428;SDS011;14881;48.092;11.574;2023-04-28T02:58:16;4.70;;;4.30;;
27428;SDS011;14881;48.092;11.574;2023-04-28T03:00:44;4.80;;;4.30;;
27428;SDS011;14881;48.092;11.574;2023-04-28T03:03:12;4.65;;;4.25;;
27428;SDS011;14881;48.092;11.574;2023-04-28T03:05:40;5.60;;;4.22;;
27428;SDS011;14881;48.092;11.574;2023-04-28T03:08:09;6.32;;;4.25;;
27428;SDS011;14881;48.092;11.574;2023-04-28T03:10:37;6.65;;;4.30;;
27428;SDS011;14881;48.092;11.574;2023-04-28T03:13:05;6.20;;;4.30;;
27428;SDS011;14881;48.092;11.574;2023-04-28T03:15:33;6.85;;;4.35;;
27428;SDS011;14881;48.092;11.574;2023-04-28T03:18:00;5.63;;;4.00;;
27428;SDS011;14881;48.092;11.574;2023-04-28T03:20:28;7.40;;;4.40;;
27428;SDS011;14881;48.092;11.574;2023-04-28T03:22:56;5.38;;;4.57;;
27428;SDS011;14881;48.092;11.574;2023-04-28T03:25:25;5.65;;;4.30;;
27428;SDS011;14881;48.092;11.574;2023-04-28T03:27:53;7.30;;;3.75;;
27428;SDS011;14881;48.092;11.574;2023-04-28T03:30:21;5.32;;;4.43;;
27428;SDS011;14881;48.092;11.574;2023-04-28T03:32:48;5.53;;;3.97;;
27428;SDS011;14881;48.092;11.574;2023-04-28T03:35:16;5.55;;;4.18;;
27428;SDS011;14881;48.092;11.574;2023-04-28T03:37:44;7.93;;;4.70;;
27428;SDS011;14881;48.092;11.574;2023-04-28T03:40:12;6.07;;;4.47;;
27428;SDS011;14881;48.092;11.574;2023-04-28T03:42:41;5.00;;;4.28;;
27428;SDS011;14881;48.092;11.574;2023-04-28T03:45:09;5.63;;;4.25;;
27428;SDS011;14881;48.092;11.574;2023-04-28T03:47:37;7.40;;;4.45;;
27428;SDS011;14881;48.092;11.574;2023-04-28T03:50:05;4.72;;;4.32;;
27428;SDS011;14881;48.092;11.574;2023-04-28T03:52:34;8.45;;;4.35;;
27428;SDS011;14881;48.092;11.574;2023-04-28T03:55:02;4.72;;;4.22;;
27428;SDS011;14881;48.092;11.574;2023-04-28T03:57:29;5.00;;;4.28;;
27428;SDS011;14881;48.092;11.574;2023-04-28T03:59:58;5.30;;;4.60;;
27428;SDS011;14881;48.092;11.574;2023-04-28T04:02:26;5.78;;;4.78;;
27428;SDS011;14881;48.092;11.574;2023-04-28T04:04:54;5.15;;;3.92;;
27428;SDS011;14881;48.092;11.574;2023-04-28T04:07:22;4.80;;;4.30;;
27428;SDS011;14881;48.092;11.574;2023-04-28T04:09:50;4.47;;;4.05;;
27428;SDS011;14881;48.092;11.574;2023-04-28T04:12:17;5.20;;;4.05;;
27428;SDS011;14881;48.092;11.574;2023-04-28T04:14:45;4.82;;;3.78;;
27428;SDS011;14881;48.092;11.574;2023-04-28T04:17:14;4.43;;;3.88;;
27428;SDS011;14881;48.092;11.574;2023-04-28T04:19:42;6.15;;;4.38;;
27428;SDS011;14881;48.092;11.574;2023-04-28T04:22:09;5.43;;;4.38;;
27428;SDS011;14881;48.092;11.574;2023-04-28T04:24:37;4.50;;;4.10;;
27428;SDS011;14881;48.092;11.574;2023-04-28T04:27:05;4.95;;;4.00;;
27428;SDS011;14881;48.092;11.574;2023-04-28T04:29:32;4.47;;;4.07;;
27428;SDS011;14881;48.092;11.574;2023-04-28T04:32:00;4.65;;;4.05;;
27428;SDS011;14881;48.092;11.574;2023-04-28T04:34:29;5.03;;;4.03;;
27428;SDS011;14881;48.092;11.574;2023-04-28T04:36:57;4.43;;;3.47;;
27428;SDS011;14881;48.092;11.574;2023-04-28T04:39:24;3.78;;;3.42;;
27428;SDS011;14881;48.092;11.574;2023-04-28T04:41:52;4.63;;;3.72;;
27428;SDS011;14881;48.092;11.574;2023-04-28T04:44:20;6.90;;;3.78;;
27428;SDS011;14881;48.092;11.574;2023-04-28T04:46:48;5.85;;;3.97;;
27428;SDS011;14881;48.092;11.574;2023-04-28T04:49:15;4.22;;;3.50;;
27428;SDS011;14881;48.092;11.574;2023-04-28T04:51:44;3.90;;;3.60;;
27428;SDS011;14881;48.092;11.574;2023-04-28T04:54:12;4.72;;;3.28;;
27428;SDS011;14881;48.092;11.574;2023-04-28T04:56:40;5.82;;;4.10;;
27428;SDS011;14881;48.092;11.574;2023-04-28T04:59:08;4.40;;;4.00;;
27428;SDS011;14881;48.092;11.574;2023-04-28T05:01:36;4.40;;;3.47;;
27428;SDS011;14881;48.092;11.574;2023-04-28T05:04:04;4.32;;;3.80;;
27428;SDS011;14881;48.092;11.574;2023-04-28T05:06:32;4.85;;;3.97;;
27428;SDS011;14881;48.092;11.574;2023-04-28T05:09:01;4.50;;;3.83;;
27428;SDS011;14881;48.092;11.574;2023-04-28T05:11:28;4.78;;;3.80;;
27428;SDS011;14881;48.092;11.574;2023-04-28T05:13:59;4.00;;;3.60;;
27428;SDS011;14881;48.092;11.574;2023-04-28T05:16:27;4.65;;;3.90;;
27428;SDS011;14881;48.092;11.574;2023-04-28T05:18:55;4.75;;;3.67;;
27428;SDS011;14881;48.092;11.574;2023-04-28T05:21:22;3.92;;;3.53;;
27428;SDS011;14881;48.092;11.574;2023-04-28T05:23:50;6.45;;;4.00;;
27428;SDS011;14881;48.092;11.574;2023-04-28T05:26:20;4.25;;;3.85;;
27428;SDS011;14881;48.092;11.574;2023-04-28T05:28:48;5.43;;;4.10;;
27428;SDS011;14881;48.092;11.574;2023-04-28T05:31:15;6.38;;;4.13;;
27428;SDS011;14881;48.092;11.574;2023-04-28T05:33:43;3.90;;;3.50;;
27428;SDS011;14881;48.092;11.574;2023-04-28T05:36:11;4.63;;;3.35;;
27428;SDS011;14881;48.092;11.574;2023-04-28T05:38:42;5.78;;;5.18;;
27428;SDS011;14881;48.092;11.574;2023-04-28T05:41:09;12.55;;;9.20;;
27428;SDS011;14881;48.092;11.574;2023-04-28T05:43:40;13.68;;;9.98;;
27428;SDS011;14881;48.092;11.574;2023-04-28T05:46:08;20.77;;;12.40;;
27428;SDS011;14881;48.092;11.574;2023-04-28T05:48:54;19.15;;;11.63;;
27428;SDS011;14881;48.092;11.574;2023-04-28T05:51:22;16.27;;;11.50;;
27428;SDS011;14881;48.092;11.574;2023-04-28T05:53:50;13.57;;;9.57;;
27428;SDS011;14881;48.092;11.574;2023-04-28T05:56:18;12.40;;;8.82;;
27428;SDS011;14881;48.092;11.574;2023-04-28T05:58:47;6.95;;;4.60;;
27428;SDS011;14881;48.092;11.574;2023-04-28T06:01:15;6.25;;;4.90;;
27428;SDS011;14881;48.092;11.574;2023-04-28T06:03:44;6.05;;;4.90;;
27428;SDS011;14881;48.092;11.574;2023-04-28T06:06:19;7.63;;;6.25;;
27428;SDS011;14881;48.092;11.574;2023-04-28T06:08:47;6.43;;;5.47;;
27428;SDS011;14881;48.092;11.574;2023-04-28T06:11:15;8.38;;;5.72;;
27428;SDS011;14881;48.092;11.574;2023-04-28T06:13:44;7.03;;;6.32;;
27428;SDS011;14881;48.092;11.574;2023-04-28T06:16:13;6.30;;;5.38;;
27428;SDS011;14881;48.092;11.574;2023-04-28T06:18:41;5.25;;;4.32;;
27428;SDS011;14881;48.092;11.574;2023-04-28T06:21:09;5.90;;;4.03;;
27428;SDS011;14881;48.092;11.574;2023-04-28T06:23:37;4.88;;;4.18;;
27428;SDS011;14881;48.092;11.574;2023-04-28T06:26:06;6.85;;;3.88;;
27428;SDS011;14881;48.092;11.574;2023-04-28T06:28:33;4.38;;;3.50;;
27428;SDS011;14881;48.092;11.574;2023-04-28T06:31:01;3.50;;;3.20;;
27428;SDS011;14881;48.092;11.574;2023-04-28T06:33:30;3.55;;;3.25;;
27428;SDS011;14881;48.092;11.574;2023-04-28T06:35:58;4.18;;;3.10;;
27428;SDS011;14881;48.092;11.574;2023-04-28T06:38:26;4.57;;;3.55;;
27428;SDS011;14881;48.092;11.574;2023-04-28T06:40:54;3.75;;;3.30;;
27428;SDS011;14881;48.092;11.574;2023-04-28T06:43:21;3.15;;;2.85;;
27428;SDS011;14881;48.092;11.574;2023-04-28T06:45:49;3.80;;;2.90;;
27428;SDS011;14881;48.092;11.574;2023-04-28T06:48:17;3.38;;;3.08;;
27428;SDS011;14881;48.092;11.574;2023-04-28T06:50:46;3.83;;;3.38;;
27428;SDS011;14881;48.092;11.574;2023-04-28T06:53:14;2.90;;;2.63;;
27428;SDS011;14881;48.092;11.574;2023-04-28T06:55:42;3.42;;;3.03;;
27428;SDS011;14881;48.092;11.574;2023-04-28T06:58:10;4.15;;;2.85;;
27428;SDS011;14881;48.092;11.574;2023-04-28T07:00:37;3.15;;;2.85;;
27428;SDS011;14881;48.092;11.574;2023-04-28T07:03:05;3.58;;;2.65;;
27428;SDS011;14881;48.092;11.574;2023-04-28T07:05:38;2.60;;;2.40;;
27428;SDS011;14881;48.092;11.574;2023-04-28T07:08:07;4.57;;;2.92;;
27428;SDS011;14881;48.092;11.574;2023-04-28T07:10:35;4.38;;;2.67;;
27428;SDS011;14881;48.092;11.574;2023-04-28T07:13:02;2.80;;;2.60;;
27428;SDS011;14881;48.092;11.574;2023-04-28T07:15:30;2.75;;;2.40;;
27428;SDS011;14881;48.092;11.574;2023-04-28T07:17:58;3.00;;;2.72;;
27428;SDS011;14881;48.092;11.574;2023-04-28T07:20:26;3.65;;;2.72;;
27428;SDS011;14881;48.092;11.574;2023-04-28T07:22:54;4.05;;;2.60;;
27428;SDS011;14881;48.092;11.574;2023-04-28T07:25:23;4.53;;;2.50;;
27428;SDS011;14881;48.092;11.574;2023-04-28T07:27:51;2.67;;;2.42;;
27428;SDS011;14881;48.092;11.574;2023-04-28T07:30:19;2.67;;;2.42;;
27428;SDS011;14881;48.092;11.574;2023-04-28T07:32:53;3.60;;;2.53;;
27428;SDS011;14881;48.092;11.574;2023-04-28T07:35:21;3.03;;;2.72;;
27428;SDS011;14881;48.092;11.574;2023-04-28T07:37:49;3.22;;;2.63;;
27428;SDS011;14881;48.092;11.574;2023-04-28T07:40:17;2.35;;;2.15;;
27428;SDS011;14881;48.092;11.574;2023-04-28T07:42:46;5.35;;;2.80;;
27428;SDS011;14881;48.092;11.574;2023-04-28T07:45:14;3.35;;;2.65;;
27428;SDS011;14881;48.092;11.574;2023-04-28T07:47:42;2.70;;;2.50;;
27428;SDS011;14881;48.092;11.574;2023-04-28T07:50:10;3.00;;;2.40;;
27428;SDS011;14881;48.092;11.574;2023-04-28T07:52:38;3.72;;;2.70;;
27428;SDS011;14881;48.092;11.574;2023-04-28T07:55:06;2.42;;;2.22;;
27428;SDS011;14881;48.092;11.574;2023-04-28T07:57:34;3.33;;;2.53;;
27428;SDS011;14881;48.092;11.574;2023-04-28T08:00:04;2.70;;;2.30;;
27428;SDS011;14881;48.092;11.574;2023-04-28T08:02:33;3.25;;;2.10;;
27428;SDS011;14881;48.092;11.574;2023-04-28T08:05:01;2.70;;;2.33;;
27428;SDS011;14881;48.092;11.574;2023-04-28T08:07:29;3.40;;;2.20;;
27428;SDS011;14881;48.092;11.574;2023-04-28T08:09:57;2.50;;;2.30;;
27428;SDS011;14881;48.092;11.574;2023-04-28T08:12:26;4.05;;;2.53;;
27428;SDS011;14881;48.092;11.574;2023-04-28T08:14:54;2.58;;;2.20;;
27428;SDS011;14881;48.092;11.574;2023-04-28T08:17:23;2.63;;;2.42;;
27428;SDS011;14881;48.092;11.574;2023-04-28T08:19:51;4.15;;;2.72;;
27428;SDS011;14881;48.092;11.574;2023-04-28T08:22:19;3.00;;;2.55;;
27428;SDS011;14881;48.092;11.574;2023-04-28T08:24:46;2.70;;;2.50;;
27428;SDS011;14881;48.092;11.574;2023-04-28T08:27:14;3.20;;;2.63;;
27428;SDS011;14881;48.092;11.574;2023-04-28T08:29:44;2.42;;;2.22;;
27428;SDS011;14881;48.092;11.574;2023-04-28T08:32:12;3.47;;;2.58;;
27428;SDS011;14881;48.092;11.574;2023-04-28T08:34:41;2.58;;;2.38;;
27428;SDS011;14881;48.092;11.574;2023-04-28T08:37:08;3.08;;;2.60;;
27428;SDS011;14881;48.092;11.574;2023-04-28T08:39:36;2.85;;;2.65;;
27428;SDS011;14881;48.092;11.574;2023-04-28T08:42:04;2.67;;;2.47;;
27428;SDS011;14881;48.092;11.574;2023-04-28T08:44:33;3.03;;;2.35;;
27428;SDS011;14881;48.092;11.574;2023-04-28T08:47:04;4.40;;;2.60;;
27428;SDS011;14881;48.092;11.574;2023-04-28T08:49:38;3.88;;;2.85;;
27428;SDS011;14881;48.092;11.574;2023-04-28T08:52:10;3.60;;;2.47;;
27428;SDS011;14881;48.092;11.574;2023-04-28T08:54:38;3.20;;;2.58;;
27428;SDS011;14881;48.092;11.574;2023-04-28T08:57:07;2.63;;;2.35;;
27428;SDS011;14881;48.092;11.574;2023-04-28T08:59:39;2.80;;;2.60;;
27428;SDS011;14881;48.092;11.574;2023-04-28T09:02:07;2.90;;;2.70;;
27428;SDS011;14881;48.092;11.574;2023-04-28T09:04:35;3.20;;;2.55;;
27428;SDS011;14881;48.092;11.574;2023-04-28T09:07:10;2.88;;;2.65;;
27428;SDS011;14881;48.092;11.574;2023-04-28T09:09:39;3.38;;;2.75;;
27428;SDS011;14881;48.092;11.574;2023-04-28T09:12:07;4.03;;;2.45;;
27428;SDS011;14881;48.092;11.574;2023-04-28T09:14:35;6.70;;;2.42;;
27428;SDS011;14881;48.092;11.574;2023-04-28T09:17:08;3.83;;;2.10;;
27428;SDS011;14881;48.092;11.574;2023-04-28T09:19:38;5.03;;;2.20;;
27428;SDS011;14881;48.092;11.574;2023-04-28T09:22:08;4.20;;;2.55;;
27428;SDS011;14881;48.092;11.574;2023-04-28T09:24:53;3.50;;;2.60;;
27428;SDS011;14881;48.092;11.574;2023-04-28T09:27:25;2.30;;;2.10;;
27428;SDS011;14881;48.092;11.574;2023-04-28T09:29:53;2.85;;;2.00;;
27428;SDS011;14881;48.092;11.574;2023-04-28T09:32:22;2.63;;;1.98;;
27428;SDS011;14881;48.092;11.574;2023-04-28T09:34:52;4.95;;;2.50;;
27428;SDS011;14881;48.092;11.574;2023-04-28T09:37:23;2.47;;;2.00;;
27428;SDS011;14881;48.092;11.574;2023-04-28T09:39:54;2.25;;;2.03;;
27428;SDS011;14881;48.092;11.574;2023-04-28T09:42:31;3.97;;;1.85;;
27428;SDS011;14881;48.092;11.574;2023-04-28T09:45:00;5.38;;;2.58;;
27428;SDS011;14881;48.092;11.574;2023-04-28T09:47:29;3.45;;;1.83;;
27428;SDS011;14881;48.092;11.574;2023-04-28T09:49:59;2.92;;;2.10;;
27428;SDS011;14881;48.092;11.574;2023-04-28T09:52:28;3.78;;;2.28;;
27428;SDS011;14881;48.092;11.574;2023-04-28T09:54:57;3.45;;;2.28;;
27428;SDS011;14881;48.092;11.574;2023-04-28T09:57:27;3.53;;;2.03;;
27428;SDS011;14881;48.092;11.574;2023-04-28T09:59:57;3.45;;;1.90;;
27428;SDS011;14881;48.092;11.574;2023-04-28T10:02:25;2.13;;;2.03;;
27428;SDS011;14881;48.092;11.574;2023-04-28T10:04:57;2.15;;;1.92;;
27428;SDS011;14881;48.092;11.574;2023-04-28T10:07:25;2.38;;;2.13;;
27428;SDS011;14881;48.092;11.574;2023-04-28T10:09:57;2.30;;;1.85;;
27428;SDS011;14881;48.092;11.574;2023-04-28T10:12:25;2.95;;;1.63;;
27428;SDS011;14881;48.092;11.574;2023-04-28T10:14:53;1.67;;;1.58;;
27428;SDS011;14881;48.092;11.574;2023-04-28T10:17:22;1.95;;;1.60;;
27428;SDS011;14881;48.092;11.574;2023-04-28T10:19:52;4.05;;;2.17;;
27428;SDS011;14881;48.092;11.574;2023-04-28T10:22:28;2.17;;;1.75;;
27428;SDS011;14881;48.092;11.574;2023-04-28T10:25:23;2.50;;;1.60;;
27428;SDS011;14881;48.092;11.574;2023-04-28T10:27:52;1.73;;;1.63;;
27428;SDS011;14881;48.092;11.574;2023-04-28T10:30:21;2.92;;;1.42;;
27428;SDS011;14881;48.092;11.574;2023-04-28T10:35:51;2.13;;;1.52;;
27428;SDS011;14881;48.092;11.574;2023-04-28T10:38:19;5.97;;;1.88;;
27428;SDS011;14881;48.092;11.574;2023-04-28T10:40:49;2.00;;;1.67;;
27428;SDS011;14881;48.092;11.574;2023-04-28T10:43:34;1.70;;;1.60;;
27428;SDS011;14881;48.092;11.574;2023-04-28T10:46:05;3.10;;;1.70;;
27428;SDS011;14881;48.092;11.574;2023-04-28T10:51:34;4.22;;;1.73;;
27428;SDS011;14881;48.092;11.574;2023-04-28T10:54:09;3.00;;;1.55;;
27428;SDS011;14881;48.092;11.574;2023-04-28T10:56:42;2.38;;;1.88;;
27428;SDS011;14881;48.092;11.574;2023-04-28T10:59:47;2.72;;;1.55;;
27428;SDS011;14881;48.092;11.574;2023-04-28T11:02:37;2.38;;;1.70;;
27428;SDS011;14881;48.092;11.574;2023-04-28T11:05:13;3.10;;;1.60;;
27428;SDS011;14881;48.092;11.574;2023-04-28T11:13:47;1.50;;;1.40;;
27428;SDS011;14881;48.092;11.574;2023-04-28T11:16:20;2.55;;;1.50;;
27428;SDS011;14881;48.092;11.574;2023-04-28T11:18:59;2.33;;;1.60;;
27428;SDS011;14881;48.092;11.574;2023-04-28T11:21:30;3.08;;;1.50;;
27428;SDS011;14881;48.092;11.574;2023-04-28T11:23:59;1.88;;;1.63;;
27428;SDS011;14881;48.092;11.574;2023-04-28T11:26:27;3.05;;;1.90;;
27428;SDS011;14881;48.092;11.574;2023-04-28T11:28:57;3.60;;;1.90;;
27428;SDS011;14881;48.092;11.574;2023-04-28T11:31:24;4.75;;;1.70;;
27428;SDS011;14881;48.092;11.574;2023-04-28T11:33:59;2.53;;;1.70;;
27428;SDS011;14881;48.092;11.574;2023-04-28T11:36:30;1.33;;;1.30;;
27428;SDS011;14881;48.092;11.574;2023-04-28T11:39:01;2.03;;;1.80;;
27428;SDS011;14881;48.092;11.574;2023-04-28T11:41:30;1.98;;;1.50;;
27428;SDS011;14881;48.092;11.574;2023-04-28T11:44:00;1.58;;;1.40;;
27428;SDS011;14881;48.092;11.574;2023-04-28T11:46:43;5.55;;;1.55;;
27428;SDS011;14881;48.092;11.574;2023-04-28T11:49:11;1.50;;;1.40;;
27428;SDS011;14881;48.092;11.574;2023-04-28T11:51:40;2.20;;;1.50;;
27428;SDS011;14881;48.092;11.574;2023-04-28T11:54:10;2.92;;;1.38;;
27428;SDS011;14881;48.092;11.574;2023-04-28T11:56:40;4.18;;;1.75;;
27428;SDS011;14881;48.092;11.574;2023-04-28T11:59:11;3.17;;;1.63;;
27428;SDS011;14881;48.092;11.574;2023-04-28T12:01:45;2.97;;;1.40;;
27428;SDS011;14881;48.092;11.574;2023-04-28T12:04:25;2.60;;;1.40;;
27428;SDS011;14881;48.092;11.574;2023-04-28T12:07:00;2.67;;;1.30;;
27428;SDS011;14881;48.092;11.574;2023-04-28T12:09:30;3.35;;;1.48;;
27428;SDS011;14881;48.092;11.574;2023-04-28T12:11:59;3.67;;;1.60;;
27428;SDS011;14881;48.092;11.574;2023-04-28T12:14:30;2.50;;;1.85;;
27428;SDS011;14881;48.092;11.574;2023-04-28T12:17:00;1.85;;;1.48;;
27428;SDS011;14881;48.092;11.574;2023-04-28T12:19:29;3.65;;;1.65;;
27428;SDS011;14881;48.092;11.574;2023-04-28T12:21:57;1.80;;;1.70;;
27428;SDS011;14881;48.092;11.574;2023-04-28T12:24:26;1.63;;;1.50;;
27428;SDS011;14881;48.092;11.574;2023-04-28T12:26:54;1.50;;;1.30;;
27428;SDS011;14881;48.092;11.574;2023-04-28T12:29:41;1.55;;;1.13;;
27428;SDS011;14881;48.092;11.574;2023-04-28T12:32:11;1.50;;;1.40;;
27428;SDS011;14881;48.092;11.574;2023-04-28T12:34:40;1.40;;;1.10;;
27428;SDS011;14881;48.092;11.574;2023-04-28T12:37:08;1.48;;;1.15;;
27428;SDS011;14881;48.092;11.574;2023-04-28T12:39:38;1.00;;;1.00;;
27428;SDS011;14881;48.092;11.574;2023-04-28T12:42:07;1.60;;;1.10;;
27428;SDS011;14881;48.092;11.574;2023-04-28T12:44:35;1.60;;;1.45;;
27428;SDS011;14881;48.092;11.574;2023-04-28T12:47:06;1.35;;;1.25;;
27428;SDS011;14881;48.092;11.574;2023-04-28T12:49:34;1.52;;;1.20;;
27428;SDS011;14881;48.092;11.574;2023-04-28T12:52:03;1.58;;;0.90;;
27428;SDS011;14881;48.092;11.574;2023-04-28T12:54:31;1.75;;;1.00;;
27428;SDS011;14881;48.092;11.574;2023-04-28T12:56:59;2.25;;;1.20;;
27428;SDS011;14881;48.092;11.574;2023-04-28T12:59:28;0.80;;;0.80;;
27428;SDS011;14881;48.092;11.574;2023-04-28T13:01:56;1.58;;;1.10;;
27428;SDS011;14881;48.092;11.574;2023-04-28T13:04:26;2.15;;;1.13;;
27428;SDS011;14881;48.092;11.574;2023-04-28T13:06:55;3.72;;;1.00;;
27428;SDS011;14881;48.092;11.574;2023-04-28T13:09:24;2.30;;;0.85;;
27428;SDS011;14881;48.092;11.574;2023-04-28T13:11:52;0.73;;;0.60;;
27428;SDS011;14881;48.092;11.574;2023-04-28T13:14:20;1.17;;;0.80;;
27428;SDS011;14881;48.092;11.574;2023-04-28T13:16:48;0.70;;;0.70;;
27428;SDS011;14881;48.092;11.574;2023-04-28T13:19:16;1.83;;;0.75;;
27428;SDS011;14881;48.092;11.574;2023-04-28T13:21:46;0.82;;;0.60;;
27428;SDS011;14881;48.092;11.574;2023-04-28T13:24:13;1.05;;;0.60;;
27428;SDS011;14881;48.092;11.574;2023-04-28T13:26:41;0.95;;;0.95;;
27428;SDS011;14881;48.092;11.574;2023-04-28T13:29:10;2.63;;;0.73;;
27428;SDS011;14881;48.092;11.574;2023-04-28T13:31:39;1.33;;;0.63;;
27428;SDS011;14881;48.092;11.574;2023-04-28T13:34:07;0.77;;;0.77;;
27428;SDS011;14881;48.092;11.574;2023-04-28T13:36:41;0.50;;;0.50;;
27428;SDS011;14881;48.092;11.574;2023-04-28T13:39:10;0.63;;;0.63;;
27428;SDS011;14881;48.092;11.574;2023-04-28T13:41:40;1.08;;;0.82;;
27428;SDS011;14881;48.092;11.574;2023-04-28T13:44:08;0.85;;;0.60;;
27428;SDS011;14881;48.092;11.574;2023-04-28T13:46:35;2.47;;;0.93;;
27428;SDS011;14881;48.092;11.574;2023-04-28T13:49:03;0.50;;;0.50;;
27428;SDS011;14881;48.092;11.574;2023-04-28T13:51:31;1.00;;;0.60;;
27428;SDS011;14881;48.092;11.574;2023-04-28T13:53:59;0.95;;;0.60;;
27428;SDS011;14881;48.092;11.574;2023-04-28T13:56:31;0.70;;;0.70;;
27428;SDS011;14881;48.092;11.574;2023-04-28T13:58:59;3.42;;;0.60;;
27428;SDS011;14881;48.092;11.574;2023-04-28T14:01:26;0.63;;;0.60;;
27428;SDS011;14881;48.092;11.574;2023-04-28T14:03:55;0.60;;;0.60;;
27428;SDS011;14881;48.092;11.574;2023-04-28T14:06:23;0.57;;;0.43;;
27428;SDS011;14881;48.092;11.574;2023-04-28T14:08:51;1.13;;;0.60;;
27428;SDS011;14881;48.092;11.574;2023-04-28T14:11:19;2.28;;;0.77;;
27428;SDS011;14881;48.092;11.574;2023-04-28T14:13:48;0.57;;;0.57;;
27428;SDS011;14881;48.092;11.574;2023-04-28T14:16:15;0.60;;;0.60;;
27428;SDS011;14881;48.092;11.574;2023-04-28T14:18:43;1.02;;;0.65;;
27428;SDS011;14881;48.092;11.574;2023-04-28T14:21:11;2.90;;;0.65;;
27428;SDS011;14881;48.092;11.574;2023-04-28T14:23:39;1.13;;;0.90;;
27428;SDS011;14881;48.092;11.574;2023-04-28T14:26:06;3.63;;;0.73;;
27428;SDS011;14881;48.092;11.574;2023-04-28T14:28:34;0.68;;;0.63;;
27428;SDS011;14881;48.092;11.574;2023-04-28T14:31:04;0.55;;;0.55;;
27428;SDS011;14881;48.092;11.574;2023-04-28T14:33:34;1.33;;;0.80;;
27428;SDS011;14881;48.092;11.574;2023-04-28T14:36:02;0.70;;;0.70;;
27428;SDS011;14881;48.092;11.574;2023-04-28T14:38:30;0.80;;;0.80;;
27428;SDS011;14881;48.092;11.574;2023-04-28T14:40:58;0.60;;;0.60;;
27428;SDS011;14881;48.092;11.574;2023-04-28T14:43:25;1.42;;;0.70;;
27428;SDS011;14881;48.092;11.574;2023-04-28T14:45:53;0.50;;;0.50;;
27428;SDS011;14881;48.092;11.574;2023-04-28T14:48:22;0.63;;;0.63;;
27428;SDS011;14881;48.092;11.574;2023-04-28T14:50:50;1.02;;;0.75;;
27428;SDS011;14881;48.092;11.574;2023-04-28T14:53:18;1.13;;;0.70;;
27428;SDS011;14881;48.092;11.574;2023-04-28T14:55:46;0.63;;;0.63;;